Time;durP1;ratioP1;P1;durP2;ratioP2;P2;SDS_P1;SDS_P2;PMS_P1;PMS_P2;Temp;Humidity;BMP_temperature;BMP_pressure;BME280_temperature;BME280_humidity;BME280_pressure;Samples;Min_cycle;Max_cycle;Signal;HPM_P1;HPM_P2
2024/04/16 00:00:39;;;;;;;0.00;0.00;;;5.70;99.90;;;;;;5444310;26;20018;-91
2024/04/16 00:03:08;;;;;;;0.10;0.10;;;5.80;99.90;;;;;;5444970;26;20470;-91
2024/04/16 00:05:34;;;;;;;1.45;0.75;;;5.80;99.90;;;;;;5420657;26;20017;-91
2024/04/16 00:08:00;;;;;;;0.98;0.15;;;5.80;99.90;;;;;;5444313;26;20030;-91
2024/04/16 00:10:26;;;;;;;0.25;0.20;;;5.80;99.90;;;;;;5412848;26;20112;-90
2024/04/16 00:12:52;;;;;;;0.00;0.00;;;5.80;99.90;;;;;;5444793;26;20017;-91
2024/04/16 00:15:17;;;;;;;0.10;0.10;;;5.80;99.90;;;;;;5445452;26;20007;-90
2024/04/16 00:17:44;;;;;;;0.20;0.00;;;5.80;99.90;;;;;;5444693;26;20076;-91
2024/04/16 00:20:10;;;;;;;0.00;0.00;;;5.80;99.90;;;;;;5413049;26;20013;-91
2024/04/16 00:22:39;;;;;;;0.35;0.00;;;5.80;99.90;;;;;;5413833;26;20014;-91
2024/04/16 00:25:07;;;;;;;0.70;0.30;;;5.70;99.90;;;;;;5414675;26;20013;-92
2024/04/16 00:27:33;;;;;;;0.80;0.20;;;5.70;99.90;;;;;;5415141;26;20003;-91
2024/04/16 00:29:59;;;;;;;0.40;0.20;;;5.70;99.90;;;;;;5413560;26;20047;-91
2024/04/16 00:32:25;;;;;;;0.20;0.13;;;5.70;99.90;;;;;;5445116;26;20019;-91
2024/04/16 00:34:50;;;;;;;0.13;0.13;;;5.70;99.90;;;;;;5414797;26;20339;-91
2024/04/16 00:37:16;;;;;;;4.25;0.55;;;5.70;99.90;;;;;;5429813;26;20014;-90
2024/04/16 00:39:42;;;;;;;0.25;0.17;;;5.70;99.90;;;;;;5412649;26;20011;-90
2024/04/16 00:42:08;;;;;;;0.38;0.20;;;5.70;99.90;;;;;;5422120;26;20478;-91
2024/04/16 00:44:34;;;;;;;1.17;0.93;;;5.70;99.90;;;;;;5448047;26;20018;-90
2024/04/16 00:47:01;;;;;;;0.10;0.10;;;5.70;99.90;;;;;;5416285;26;20072;-91
2024/04/16 00:49:26;;;;;;;1.75;0.35;;;5.70;99.90;;;;;;5421202;26;20014;-91
2024/04/16 00:51:53;;;;;;;1.23;0.30;;;5.70;99.90;;;;;;5416676;26;20010;-91
2024/04/16 00:54:21;;;;;;;0.70;0.20;;;5.80;99.90;;;;;;5416820;26;20011;-91
2024/04/16 00:56:47;;;;;;;0.52;0.20;;;5.70;99.90;;;;;;5418966;26;20021;-91
2024/04/16 00:59:23;;;;;;;0.03;0.03;;;5.70;99.90;;;;;;5445862;26;20462;-91
2024/04/16 01:01:49;;;;;;;0.10;0.10;;;5.70;99.90;;;;;;5416415;26;20071;-91
2024/04/16 01:04:15;;;;;;;0.10;0.10;;;5.70;99.90;;;;;;5448555;26;20003;-91
2024/04/16 01:06:41;;;;;;;1.45;0.35;;;5.70;99.90;;;;;;5417415;26;20099;-91
2024/04/16 01:09:09;;;;;;;0.10;0.10;;;5.70;99.90;;;;;;5446965;26;20042;-91
2024/04/16 01:11:35;;;;;;;0.80;0.52;;;5.60;99.90;;;;;;5412973;26;20473;-91
2024/04/16 01:14:00;;;;;;;0.47;0.28;;;5.60;99.90;;;;;;5447082;26;20006;-92
2024/04/16 01:16:26;;;;;;;0.55;0.25;;;5.60;99.90;;;;;;5448936;26;20523;-91
2024/04/16 01:18:52;;;;;;;2.33;0.40;;;5.60;99.90;;;;;;5417158;26;20010;-91
2024/04/16 01:21:18;;;;;;;1.17;0.65;;;5.60;99.90;;;;;;5416869;26;20057;-91
2024/04/16 01:23:43;;;;;;;2.67;0.20;;;5.50;99.90;;;;;;5436321;26;20091;-91
2024/04/16 01:26:09;;;;;;;0.08;0.08;;;5.40;99.90;;;;;;5417160;26;20022;-91
2024/04/16 01:28:35;;;;;;;1.77;0.40;;;5.40;99.90;;;;;;5416126;26;20007;-91
2024/04/16 01:31:00;;;;;;;0.40;0.10;;;5.40;99.90;;;;;;5416629;26;20370;-91
2024/04/16 01:33:26;;;;;;;0.40;0.13;;;5.40;99.90;;;;;;5448002;26;20007;-90
2024/04/16 01:35:53;;;;;;;0.10;0.00;;;5.30;99.90;;;;;;5444166;26;20025;-91
2024/04/16 01:38:19;;;;;;;0.85;0.22;;;5.30;99.90;;;;;;5416287;26;20011;-91
2024/04/16 01:40:45;;;;;;;0.70;0.15;;;5.20;99.90;;;;;;5447096;26;20006;-91
2024/04/16 01:43:11;;;;;;;0.43;0.25;;;5.20;99.90;;;;;;5427354;26;20003;-91
2024/04/16 01:45:37;;;;;;;1.65;0.10;;;5.20;99.90;;;;;;5447791;26;20003;-90
2024/04/16 01:48:03;;;;;;;1.63;0.15;;;5.10;99.90;;;;;;5475831;26;20006;-91
2024/04/16 01:50:28;;;;;;;0.00;0.00;;;5.10;99.90;;;;;;5446622;26;20006;-91
2024/04/16 01:52:54;;;;;;;0.00;0.00;;;5.10;99.90;;;;;;5416170;26;20353;-91
2024/04/16 01:55:21;;;;;;;0.40;0.10;;;5.10;99.90;;;;;;5414528;26;20294;-91
2024/04/16 01:57:50;;;;;;;0.10;0.10;;;5.00;99.90;;;;;;5447451;26;20592;-91
2024/04/16 02:00:16;;;;;;;0.00;0.00;;;5.00;99.90;;;;;;5445560;26;20297;-90
2024/04/16 02:02:41;;;;;;;0.10;0.10;;;5.10;99.90;;;;;;5416228;26;20327;-91
2024/04/16 02:05:07;;;;;;;0.22;0.10;;;5.10;99.90;;;;;;5415700;26;20010;-92
2024/04/16 02:07:36;;;;;;;0.52;0.52;;;5.10;99.90;;;;;;5430113;26;20002;-91
2024/04/16 02:10:02;;;;;;;1.95;0.45;;;5.20;99.90;;;;;;5475051;26;20095;-91
2024/04/16 02:12:28;;;;;;;1.00;0.22;;;5.20;99.90;;;;;;5446902;26;20003;-90
2024/04/16 02:14:54;;;;;;;0.88;0.30;;;5.20;99.90;;;;;;5414839;26;20533;-91
2024/04/16 02:17:21;;;;;;;1.77;0.20;;;5.20;99.90;;;;;;5446602;26;20007;-90
2024/04/16 02:19:47;;;;;;;1.70;0.20;;;5.20;99.90;;;;;;5414733;26;20018;-91
2024/04/16 02:22:13;;;;;;;0.32;0.10;;;5.30;99.90;;;;;;5446751;26;20002;-92
2024/04/16 02:24:38;;;;;;;2.03;0.63;;;5.20;99.90;;;;;;5415485;26;20042;-91
2024/04/16 02:27:04;;;;;;;0.00;0.00;;;5.20;99.90;;;;;;5415414;26;20015;-91
2024/04/16 02:29:30;;;;;;;0.47;0.10;;;5.20;99.90;;;;;;5414531;26;20365;-91
2024/04/16 02:31:56;;;;;;;0.15;0.10;;;5.20;99.90;;;;;;5415306;26;20006;-90
2024/04/16 02:34:21;;;;;;;2.63;0.38;;;5.20;99.90;;;;;;5417387;26;20018;-90
2024/04/16 02:36:47;;;;;;;1.25;0.20;;;5.20;99.90;;;;;;5432236;26;20011;-90
2024/04/16 02:39:13;;;;;;;0.55;0.20;;;5.10;99.90;;;;;;5445752;26;20019;-91
2024/04/16 02:41:39;;;;;;;1.45;0.38;;;5.20;99.90;;;;;;5446822;26;20017;-91
2024/04/16 02:44:05;;;;;;;1.20;0.63;;;5.20;99.90;;;;;;5446781;26;20007;-90
2024/04/16 02:46:31;;;;;;;8.25;0.65;;;5.10;99.90;;;;;;5414576;26;20096;-91
2024/04/16 02:48:57;;;;;;;2.47;0.73;;;5.10;99.90;;;;;;5411197;26;20470;-91
2024/04/16 02:51:23;;;;;;;2.53;1.08;;;5.10;99.90;;;;;;5414938;26;20014;-91
2024/04/16 02:53:48;;;;;;;1.98;0.55;;;5.10;99.90;;;;;;5414764;26;20007;-91
2024/04/16 02:56:15;;;;;;;0.20;0.20;;;5.10;99.90;;;;;;5415431;26;20039;-91
2024/04/16 02:58:43;;;;;;;0.43;0.30;;;5.20;99.90;;;;;;5445806;26;20006;-91
2024/04/16 03:01:09;;;;;;;0.88;0.30;;;5.20;99.90;;;;;;5414782;26;20470;-91
2024/04/16 03:03:36;;;;;;;3.08;0.73;;;5.20;99.90;;;;;;5445853;26;20022;-90
2024/04/16 03:06:02;;;;;;;1.15;0.55;;;5.20;99.90;;;;;;5414194;26;20015;-91
2024/04/16 03:08:27;;;;;;;3.30;0.95;;;5.20;99.90;;;;;;5445525;26;20411;-91
2024/04/16 03:11:13;;;;;;;2.72;0.52;;;5.20;99.90;;;;;;5394139;26;20763;-90
2024/04/16 03:13:40;;;;;;;1.05;0.20;;;5.30;99.90;;;;;;5415932;26;20018;-90
2024/04/16 03:16:10;;;;;;;1.65;0.47;;;5.30;99.90;;;;;;5470548;26;20087;-91
2024/04/16 03:18:36;;;;;;;0.70;0.30;;;5.40;99.90;;;;;;5419189;26;20015;-91
2024/04/16 03:21:02;;;;;;;1.27;0.52;;;5.40;99.90;;;;;;5414321;26;20003;-91
2024/04/16 03:23:28;;;;;;;2.63;0.93;;;5.40;99.90;;;;;;5422112;26;20043;-91
2024/04/16 03:25:53;;;;;;;1.83;0.73;;;5.50;99.90;;;;;;5430602;26;20007;-91
2024/04/16 03:28:19;;;;;;;4.22;0.80;;;5.50;99.90;;;;;;5439948;26;20003;-92
2024/04/16 03:30:46;;;;;;;2.50;0.73;;;5.50;99.90;;;;;;5428296;26;20007;-89
2024/04/16 03:33:12;;;;;;;0.80;0.40;;;5.50;99.90;;;;;;5434239;26;20574;-91
2024/04/16 03:35:58;;;;;;;2.05;1.00;;;5.40;99.90;;;;;;5399518;26;20064;-91
2024/04/16 03:38:23;;;;;;;0.57;0.40;;;5.40;99.90;;;;;;5445480;26;20011;-91
2024/04/16 03:41:02;;;;;;;4.38;1.08;;;5.40;99.90;;;;;;5426551;26;20021;-91
2024/04/16 03:43:49;;;;;;;0.77;0.28;;;5.40;99.90;;;;;;5424489;26;20011;-91
2024/04/16 03:46:15;;;;;;;1.30;0.70;;;5.40;99.90;;;;;;5414172;26;20003;-91
2024/04/16 03:48:41;;;;;;;2.45;0.57;;;5.50;99.90;;;;;;5416281;26;20469;-91
2024/04/16 03:51:07;;;;;;;0.70;0.20;;;5.50;99.90;;;;;;5384108;26;20359;-91
2024/04/16 03:53:33;;;;;;;1.40;0.45;;;5.50;99.90;;;;;;5421746;26;20472;-91
2024/04/16 03:56:00;;;;;;;1.10;0.60;;;5.50;99.90;;;;;;5414009;26;20427;-90
2024/04/16 03:58:27;;;;;;;0.55;0.30;;;5.50;99.90;;;;;;5445140;26;19999;-90
2024/04/16 04:01:07;;;;;;;0.57;0.30;;;5.50;99.90;;;;;;5413410;26;20694;-91
2024/04/16 04:03:33;;;;;;;0.75;0.45;;;5.50;99.90;;;;;;5414183;26;20007;-91
2024/04/16 04:06:00;;;;;;;0.47;0.35;;;5.50;99.90;;;;;;5445603;26;20470;-91
2024/04/16 04:08:26;;;;;;;0.95;0.45;;;5.50;99.90;;;;;;5419847;26;20007;-90
2024/04/16 04:10:53;;;;;;;1.73;0.85;;;5.50;99.90;;;;;;5413107;26;20022;-91
2024/04/16 04:13:18;;;;;;;0.95;0.47;;;5.40;99.90;;;;;;5445265;26;20091;-92
2024/04/16 04:15:44;;;;;;;2.78;1.23;;;5.40;99.90;;;;;;5414345;26;20015;-91
2024/04/16 04:18:10;;;;;;;4.80;0.90;;;5.40;99.90;;;;;;5417787;26;20462;-91
2024/04/16 04:20:39;;;;;;;1.25;0.57;;;5.50;99.90;;;;;;5416464;26;20006;-90
2024/04/16 04:23:05;;;;;;;1.65;0.43;;;5.50;99.90;;;;;;5415470;26;20015;-91
2024/04/16 04:25:31;;;;;;;0.90;0.40;;;5.50;99.90;;;;;;5423282;26;21899;-91
2024/04/16 04:27:57;;;;;;;1.80;0.68;;;5.50;99.90;;;;;;5428180;26;20006;-92
2024/04/16 04:30:24;;;;;;;3.00;0.77;;;5.50;99.90;;;;;;5427387;26;20014;-89
2024/04/16 04:32:50;;;;;;;2.63;0.45;;;5.60;99.90;;;;;;5424139;26;20021;-91
2024/04/16 04:35:16;;;;;;;0.20;0.20;;;5.60;99.90;;;;;;5416836;26;20013;-91
2024/04/16 04:37:42;;;;;;;1.98;0.30;;;5.60;99.90;;;;;;5448333;26;20067;-91
2024/04/16 04:40:09;;;;;;;1.27;0.35;;;5.60;99.90;;;;;;5447821;26;20010;-91
2024/04/16 04:42:34;;;;;;;1.42;0.68;;;5.60;99.90;;;;;;5416481;26;20014;-91
2024/04/16 04:45:00;;;;;;;2.05;0.45;;;5.60;99.90;;;;;;5448976;26;20021;-92
2024/04/16 04:47:26;;;;;;;2.88;0.68;;;5.60;99.90;;;;;;5420943;26;20007;-92
2024/04/16 04:49:53;;;;;;;1.42;0.50;;;5.60;99.90;;;;;;5421710;26;20529;-90
2024/04/16 04:52:19;;;;;;;1.33;0.57;;;5.60;99.90;;;;;;5373127;26;20564;-91
2024/04/16 04:54:45;;;;;;;0.75;0.40;;;5.60;99.90;;;;;;5404014;26;20003;-91
2024/04/16 04:57:11;;;;;;;0.95;0.22;;;5.70;99.90;;;;;;5372238;26;20003;-90
2024/04/16 04:59:37;;;;;;;2.15;0.70;;;5.70;99.90;;;;;;5366754;26;20812;-89
2024/04/16 05:02:04;;;;;;;2.00;0.57;;;5.70;99.90;;;;;;5366666;26;20014;-92
2024/04/16 05:04:29;;;;;;;1.73;0.60;;;5.70;99.90;;;;;;5367396;26;20015;-90
2024/04/16 05:06:55;;;;;;;0.88;0.43;;;5.70;99.90;;;;;;5391237;26;20002;-90
2024/04/16 05:09:21;;;;;;;1.90;0.60;;;5.70;99.90;;;;;;5374731;26;20011;-90
2024/04/16 05:11:47;;;;;;;2.67;0.82;;;5.70;99.90;;;;;;5341827;26;20034;-90
2024/04/16 05:14:13;;;;;;;1.77;0.77;;;5.70;99.90;;;;;;5372127;26;20540;-91
2024/04/16 05:16:39;;;;;;;2.58;0.70;;;5.70;99.90;;;;;;5371748;26;20003;-91
2024/04/16 05:19:05;;;;;;;1.85;0.55;;;5.70;99.90;;;;;;5371814;26;20017;-91
2024/04/16 05:21:31;;;;;;;3.30;0.55;;;5.70;99.90;;;;;;5404852;26;20003;-91
2024/04/16 05:23:57;;;;;;;0.88;0.28;;;5.70;99.90;;;;;;5418592;26;20462;-91
2024/04/16 05:26:23;;;;;;;7.03;0.68;;;5.70;99.90;;;;;;5447944;26;20013;-91
2024/04/16 05:28:49;;;;;;;2.95;0.65;;;5.70;99.90;;;;;;5427382;26;20007;-90
2024/04/16 05:31:15;;;;;;;1.48;0.30;;;5.80;99.90;;;;;;5446567;26;20046;-91
2024/04/16 05:33:41;;;;;;;3.10;0.50;;;5.80;99.90;;;;;;5429001;26;20007;-91
2024/04/16 05:36:07;;;;;;;0.75;0.20;;;5.70;99.90;;;;;;5448219;26;20043;-91
2024/04/16 05:38:34;;;;;;;9.45;0.43;;;5.80;99.90;;;;;;5421650;26;20083;-91
2024/04/16 05:41:00;;;;;;;1.63;0.80;;;5.70;99.90;;;;;;5415039;26;20003;-90
2024/04/16 05:43:26;;;;;;;0.85;0.55;;;5.70;99.90;;;;;;5447901;26;20767;-90
2024/04/16 05:45:51;;;;;;;1.05;0.52;;;5.70;99.90;;;;;;5426050;26;20023;-89
2024/04/16 05:48:17;;;;;;;0.38;0.30;;;5.70;99.90;;;;;;5418249;26;20373;-91
2024/04/16 05:50:43;;;;;;;0.20;0.20;;;5.70;99.90;;;;;;5447736;26;20017;-90
2024/04/16 05:53:09;;;;;;;0.20;0.20;;;5.70;99.90;;;;;;5448806;26;20018;-91
2024/04/16 05:55:34;;;;;;;0.57;0.20;;;5.60;99.90;;;;;;5448846;26;20015;-91
2024/04/16 05:58:00;;;;;;;2.92;0.82;;;5.60;99.90;;;;;;5476337;26;20007;-90
2024/04/16 06:00:26;;;;;;;2.38;0.68;;;5.60;99.90;;;;;;5415807;26;20009;-90
2024/04/16 06:02:53;;;;;;;0.10;0.10;;;5.50;99.90;;;;;;5447968;26;20011;-91
2024/04/16 06:05:19;;;;;;;0.30;0.30;;;5.50;99.90;;;;;;5419731;26;20017;-90
2024/04/16 06:07:44;;;;;;;0.17;0.17;;;5.40;99.90;;;;;;5428802;26;20015;-91
2024/04/16 06:10:10;;;;;;;0.45;0.40;;;5.30;99.90;;;;;;5385563;26;20003;-92
2024/04/16 06:12:36;;;;;;;3.20;0.45;;;5.30;99.90;;;;;;5419858;26;20030;-92
2024/04/16 06:15:02;;;;;;;0.13;0.13;;;5.30;99.90;;;;;;5448180;26;20009;-92
2024/04/16 06:17:28;;;;;;;0.43;0.38;;;5.30;99.90;;;;;;5424374;26;20003;-91
2024/04/16 06:19:54;;;;;;;1.48;0.38;;;5.30;99.90;;;;;;5447089;26;20346;-92
2024/04/16 06:22:19;;;;;;;1.17;0.45;;;5.30;99.90;;;;;;5417595;26;20025;-92
2024/04/16 06:24:45;;;;;;;0.90;0.47;;;5.30;99.90;;;;;;5417382;26;20370;-92
2024/04/16 06:27:11;;;;;;;1.25;0.55;;;5.30;99.90;;;;;;5428988;26;20059;-91
2024/04/16 06:29:40;;;;;;;0.70;0.45;;;5.40;99.90;;;;;;5445322;26;20485;-91
2024/04/16 06:32:05;;;;;;;1.45;0.50;;;5.40;99.90;;;;;;5445974;26;20010;-91
2024/04/16 06:34:31;;;;;;;1.35;0.60;;;5.40;99.90;;;;;;5414834;26;20061;-91
2024/04/16 06:36:57;;;;;;;0.63;0.35;;;5.40;99.90;;;;;;5440489;26;20003;-90
2024/04/16 06:39:23;;;;;;;1.88;0.90;;;5.40;99.90;;;;;;5418192;26;20637;-91
2024/04/16 06:41:49;;;;;;;0.85;0.57;;;5.50;99.90;;;;;;5429694;26;20002;-91
2024/04/16 06:44:15;;;;;;;3.38;0.52;;;5.50;99.90;;;;;;5415712;26;20107;-90
2024/04/16 06:46:41;;;;;;;0.45;0.45;;;5.50;99.90;;;;;;5417369;26;20007;-91
2024/04/16 06:49:07;;;;;;;0.77;0.25;;;5.50;99.90;;;;;;5443810;26;20015;-90
2024/04/16 06:51:32;;;;;;;2.72;0.63;;;5.50;99.90;;;;;;5421085;26;20437;-90
2024/04/16 06:53:58;;;;;;;3.13;0.88;;;5.50;99.90;;;;;;5469250;26;20018;-90
2024/04/16 06:56:24;;;;;;;1.58;0.80;;;5.50;99.90;;;;;;5423098;26;20482;-91
2024/04/16 06:58:51;;;;;;;2.35;0.68;;;5.50;99.90;;;;;;5417349;26;20392;-91
2024/04/16 07:01:18;;;;;;;1.45;0.50;;;5.50;99.90;;;;;;5414538;26;20379;-90
2024/04/16 07:03:43;;;;;;;4.25;0.70;;;5.60;99.90;;;;;;5414804;26;20359;-91
2024/04/16 07:06:09;;;;;;;1.38;0.65;;;5.60;99.90;;;;;;5415349;26;20007;-90
2024/04/16 07:08:35;;;;;;;4.25;1.00;;;5.60;99.90;;;;;;5434408;26;20026;-90
2024/04/16 07:11:01;;;;;;;1.92;0.80;;;5.60;99.90;;;;;;5425960;26;20022;-91
2024/04/16 07:13:27;;;;;;;1.23;0.88;;;5.60;99.90;;;;;;5443547;26;20003;-90
2024/04/16 07:15:53;;;;;;;0.52;0.40;;;5.60;99.90;;;;;;5428296;26;20029;-90
2024/04/16 07:18:19;;;;;;;1.30;0.88;;;5.70;99.90;;;;;;5423290;26;20003;-90
2024/04/16 07:20:49;;;;;;;1.25;0.65;;;5.70;99.90;;;;;;5416962;26;20450;-90
2024/04/16 07:23:15;;;;;;;7.68;1.33;;;5.70;99.90;;;;;;5414098;26;20007;-90
2024/04/16 07:25:44;;;;;;;1.30;0.73;;;5.80;99.90;;;;;;5414845;26;20116;-91
2024/04/16 07:28:11;;;;;;;0.47;0.47;;;5.80;99.90;;;;;;5446532;26;20003;-91
2024/04/16 07:30:37;;;;;;;1.25;0.55;;;5.80;99.90;;;;;;5422151;26;20007;-90
2024/04/16 07:33:04;;;;;;;1.35;0.63;;;5.90;99.90;;;;;;5413452;26;20519;-91
2024/04/16 07:35:30;;;;;;;1.48;0.60;;;5.90;99.90;;;;;;5440216;26;20021;-90
2024/04/16 07:37:55;;;;;;;3.40;0.82;;;5.90;99.90;;;;;;5383331;26;20008;-91
2024/04/16 07:40:21;;;;;;;0.63;0.50;;;5.90;99.90;;;;;;5436661;26;20003;-91
2024/04/16 07:42:49;;;;;;;2.47;0.95;;;6.00;99.90;;;;;;5413846;26;20015;-91
2024/04/16 07:45:15;;;;;;;3.72;0.80;;;6.00;99.90;;;;;;5422317;26;20011;-91
2024/04/16 07:47:41;;;;;;;2.22;0.73;;;6.10;99.90;;;;;;5428045;26;20002;-91
2024/04/16 07:50:07;;;;;;;5.90;1.02;;;6.10;99.90;;;;;;5438066;26;20078;-91
2024/04/16 07:52:33;;;;;;;3.45;0.95;;;6.10;99.90;;;;;;5407812;26;20007;-91
2024/04/16 07:55:00;;;;;;;3.58;1.00;;;6.10;99.90;;;;;;5419301;26;20010;-91
2024/04/16 07:57:25;;;;;;;3.65;1.02;;;6.20;99.90;;;;;;5417434;26;20003;-91
2024/04/16 07:59:51;;;;;;;1.92;0.90;;;6.20;99.90;;;;;;5447305;26;20083;-91
2024/04/16 08:02:18;;;;;;;3.35;0.85;;;6.20;99.90;;;;;;5472086;26;20014;-91
2024/04/16 08:04:43;;;;;;;2.47;0.82;;;6.30;99.90;;;;;;5418358;26;20007;-91
2024/04/16 08:07:09;;;;;;;2.83;0.90;;;6.40;99.90;;;;;;5418643;26;20015;-91
2024/04/16 08:09:36;;;;;;;1.88;0.93;;;6.40;99.90;;;;;;5426564;26;20023;-91
2024/04/16 08:12:02;;;;;;;1.40;0.82;;;6.50;99.90;;;;;;5475104;26;20038;-91
2024/04/16 08:14:27;;;;;;;1.73;0.77;;;6.60;99.90;;;;;;5449642;26;20087;-91
2024/04/16 08:16:53;;;;;;;2.20;0.90;;;6.60;99.90;;;;;;5418340;26;20044;-91
2024/04/16 08:19:19;;;;;;;1.25;0.93;;;6.70;99.90;;;;;;5448454;26;20468;-91
2024/04/16 08:21:45;;;;;;;1.45;0.60;;;6.70;99.90;;;;;;5417247;26;20007;-91
2024/04/16 08:24:12;;;;;;;2.28;0.88;;;6.80;99.90;;;;;;5448366;26;20015;-91
2024/04/16 08:26:38;;;;;;;1.08;0.70;;;6.80;99.90;;;;;;5416326;26;20083;-90
2024/04/16 08:29:03;;;;;;;1.98;0.90;;;6.90;99.90;;;;;;5448578;26;20466;-91
2024/04/16 08:31:29;;;;;;;2.15;1.40;;;7.00;99.90;;;;;;5416625;26;20015;-90
2024/04/16 08:33:55;;;;;;;2.40;0.93;;;7.00;99.90;;;;;;5416598;26;20002;-91
2024/04/16 08:36:21;;;;;;;2.38;0.90;;;7.10;99.90;;;;;;5416511;26;20014;-90
2024/04/16 08:38:46;;;;;;;3.05;1.13;;;7.20;99.90;;;;;;5416506;26;20026;-91
2024/04/16 08:41:12;;;;;;;1.95;0.80;;;7.20;99.90;;;;;;5447844;26;20373;-91
2024/04/16 08:43:39;;;;;;;1.40;0.80;;;7.30;99.90;;;;;;5416412;26;20035;-91
2024/04/16 08:46:06;;;;;;;1.40;0.60;;;7.40;99.90;;;;;;5416965;26;20003;-90
2024/04/16 08:48:39;;;;;;;1.83;0.80;;;7.50;99.90;;;;;;5416109;26;20010;-92
2024/04/16 08:51:06;;;;;;;;;;;7.60;99.90;;;;;;5427697;26;20046;-91
2024/04/16 08:53:33;;;;;;;2.50;0.90;;;7.70;99.90;;;;;;5422982;26;19929;-92
2024/04/16 08:56:00;;;;;;;2.22;1.00;;;7.80;99.90;;;;;;5447259;26;20089;-91
2024/04/16 08:58:26;;;;;;;1.38;0.73;;;8.00;99.90;;;;;;5447325;26;20011;-91
2024/04/16 09:00:53;;;;;;;3.20;1.30;;;8.10;99.90;;;;;;5417247;26;20359;-91
2024/04/16 09:03:21;;;;;;;3.30;1.17;;;8.20;99.90;;;;;;5416416;26;19999;-91
2024/04/16 09:05:47;;;;;;;3.90;1.27;;;8.20;99.90;;;;;;5399839;26;20003;-91
2024/04/16 09:08:13;;;;;;;5.72;1.27;;;8.30;99.90;;;;;;5363959;26;20004;-91
2024/04/16 09:10:39;;;;;;;3.90;1.50;;;8.40;99.90;;;;;;5342252;26;20003;-91
2024/04/16 09:13:12;;;;;;;1.88;0.93;;;8.40;99.90;;;;;;5399504;26;20480;-91
2024/04/16 09:15:39;;;;;;;;;;;8.40;99.90;;;;;;5387088;26;20704;-92
2024/04/16 09:18:05;;;;;;;1.60;0.70;;;8.40;99.90;;;;;;5414785;26;19931;-91
2024/04/16 09:20:31;;;;;;;2.95;0.90;;;8.40;99.90;;;;;;5395467;26;19994;-91
2024/04/16 09:22:57;;;;;;;0.95;0.63;;;8.40;99.90;;;;;;5437693;26;20003;-91
2024/04/16 09:25:25;;;;;;;0.88;0.60;;;8.30;99.90;;;;;;5416556;26;20003;-92
2024/04/16 09:27:53;;;;;;;1.63;0.70;;;8.30;99.90;;;;;;5418408;26;20007;-92
2024/04/16 09:30:19;;;;;;;1.38;0.60;;;8.30;99.90;;;;;;5438971;26;20003;-92
2024/04/16 09:32:56;;;;;;;1.08;0.45;;;8.30;99.90;;;;;;5397436;26;20634;-90
2024/04/16 09:35:26;;;;;;;2.28;0.70;;;8.30;99.90;;;;;;5424397;26;20040;-92
2024/04/16 09:38:04;;;;;;;1.45;0.57;;;8.40;99.90;;;;;;5415799;26;20013;-91
2024/04/16 09:40:30;;;;;;;1.98;0.70;;;8.40;99.90;;;;;;5415646;26;20003;-92
2024/04/16 09:42:58;;;;;;;0.60;0.57;;;8.40;99.90;;;;;;5432472;26;20003;-92
2024/04/16 09:45:23;;;;;;;2.33;0.75;;;8.40;99.90;;;;;;5415536;26;20002;-91
2024/04/16 09:47:50;;;;;;;0.88;0.50;;;8.50;99.90;;;;;;5417643;26;20477;-91
2024/04/16 09:50:20;;;;;;;1.75;0.82;;;8.50;99.90;;;;;;5415657;26;20011;-91
2024/04/16 09:52:52;;;;;;;1.23;0.50;;;8.50;99.90;;;;;;5415863;26;20542;-92
2024/04/16 09:55:21;;;;;;;1.60;0.70;;;8.60;99.90;;;;;;5446474;26;20476;-91
2024/04/16 09:57:48;;;;;;;2.13;0.73;;;8.60;99.90;;;;;;5415308;26;20006;-92
2024/04/16 10:00:15;;;;;;;1.65;0.70;;;8.70;99.90;;;;;;5446514;26;20007;-91
2024/04/16 10:02:43;;;;;;;5.72;1.60;;;8.70;99.90;;;;;;5428699;26;20018;-91
2024/04/16 10:05:11;;;;;;;3.83;0.70;;;8.70;99.90;;;;;;5418716;26;20031;-90
2024/04/16 10:07:41;;;;;;;1.13;0.60;;;8.70;99.90;;;;;;5366837;26;20004;-91
2024/04/16 10:10:08;;;;;;;3.25;0.93;;;8.80;99.90;;;;;;5415176;26;20020;-92
2024/04/16 10:12:35;;;;;;;2.70;0.65;;;8.80;99.90;;;;;;5421690;26;20017;-90
2024/04/16 10:15:01;;;;;;;1.08;0.52;;;8.80;99.90;;;;;;5414321;26;20014;-91
2024/04/16 10:17:32;;;;;;;0.77;0.50;;;8.90;99.90;;;;;;5384953;26;20002;-92
2024/04/16 10:19:58;;;;;;;0.63;0.50;;;8.90;99.90;;;;;;5415268;26;20007;-91
2024/04/16 10:22:24;;;;;;;1.65;0.50;;;8.90;99.90;;;;;;5415421;26;20038;-91
2024/04/16 10:24:53;;;;;;;1.05;0.50;;;9.00;99.90;;;;;;5446608;26;20006;-91
2024/04/16 10:27:25;;;;;;;0.90;0.50;;;9.00;99.90;;;;;;5447314;26;20039;-92
2024/04/16 10:30:09;;;;;;;2.17;0.70;;;9.00;99.90;;;;;;5433644;26;20075;-91
2024/04/16 10:32:47;;;;;;;1.13;0.60;;;9.00;99.90;;;;;;5418391;26;20416;-90
2024/04/16 10:35:16;;;;;;;1.25;0.80;;;9.00;99.90;;;;;;5427396;26;20420;-91
2024/04/16 10:37:50;;;;;;;1.67;0.73;;;9.10;99.90;;;;;;5420547;26;20015;-91
2024/04/16 10:40:52;;;;;;;1.77;0.65;;;9.20;99.90;;;;;;5446857;26;20018;-91
2024/04/16 10:43:21;;;;;;;0.40;0.40;;;9.30;99.90;;;;;;5416106;26;20003;-90
2024/04/16 10:45:48;;;;;;;0.73;0.50;;;9.30;99.90;;;;;;5446285;26;20083;-91
2024/04/16 10:48:16;;;;;;;3.20;1.10;;;9.40;99.90;;;;;;5444335;26;20079;-91
2024/04/16 10:50:43;;;;;;;1.20;0.60;;;9.50;99.90;;;;;;5415933;26;20462;-90
2024/04/16 10:53:13;;;;;;;0.85;0.60;;;9.60;99.90;;;;;;5415106;26;20010;-90
2024/04/16 10:55:43;;;;;;;0.75;0.30;;;9.60;99.90;;;;;;5418520;26;20011;-91
2024/04/16 10:58:13;;;;;;;2.25;0.93;;;9.60;99.90;;;;;;5414529;26;20003;-92
2024/04/16 11:00:43;;;;;;;0.95;0.50;;;9.80;99.90;;;;;;5414425;26;20007;-92
2024/04/16 11:03:12;;;;;;;2.08;0.98;;;9.80;99.90;;;;;;5417249;26;20369;-92
2024/04/16 11:05:40;;;;;;;1.75;0.45;;;9.80;99.90;;;;;;5414548;26;20013;-92
2024/04/16 11:08:09;;;;;;;1.27;0.90;;;9.90;99.90;;;;;;5416340;26;20014;-92
2024/04/16 11:10:36;;;;;;;2.08;0.98;;;9.90;99.90;;;;;;5415217;26;20007;-92
2024/04/16 11:13:02;;;;;;;2.33;0.68;;;10.00;99.90;;;;;;5415937;26;20022;-92
2024/04/16 11:15:33;;;;;;;1.33;0.65;;;10.00;99.90;;;;;;5419512;26;20111;-92
2024/04/16 11:17:59;;;;;;;2.38;0.90;;;10.10;99.90;;;;;;5414654;26;20007;-92
2024/04/16 11:20:26;;;;;;;2.58;0.93;;;10.10;99.90;;;;;;5428215;26;20003;-91
2024/04/16 11:22:52;;;;;;;3.28;1.10;;;10.20;99.90;;;;;;5445199;26;20083;-92
2024/04/16 11:25:18;;;;;;;1.98;0.90;;;10.30;99.90;;;;;;5429482;26;20006;-91
2024/04/16 11:27:44;;;;;;;3.28;1.60;;;10.50;99.90;;;;;;5443335;26;20530;-91
2024/04/16 11:30:12;;;;;;;3.30;1.02;;;10.70;99.90;;;;;;5416883;26;20003;-91
2024/04/16 11:32:38;;;;;;;4.32;1.10;;;10.80;99.90;;;;;;5443400;26;20015;-90
2024/04/16 11:35:11;;;;;;;1.38;0.82;;;11.00;99.90;;;;;;5445572;26;20857;-90
2024/04/16 11:37:40;;;;;;;;;;;11.00;99.90;;;;;;5414600;26;20021;-90
2024/04/16 11:40:06;;;;;;;4.60;1.42;;;11.10;99.90;;;;;;5414069;26;19924;-90
2024/04/16 11:42:34;;;;;;;2.88;1.00;;;11.10;99.90;;;;;;5446182;26;20047;-90
2024/04/16 11:45:00;;;;;;;3.10;1.00;;;11.10;99.90;;;;;;5409518;26;20003;-90
2024/04/16 11:47:26;;;;;;;3.03;0.90;;;11.10;99.90;;;;;;5416028;26;20099;-90
2024/04/16 11:49:52;;;;;;;3.60;1.27;;;11.20;99.90;;;;;;5445521;26;20011;-92
2024/04/16 11:52:17;;;;;;;3.05;1.02;;;11.20;99.90;;;;;;5420340;26;20021;-92
2024/04/16 11:54:52;;;;;;;2.40;0.95;;;11.30;99.90;;;;;;5339634;26;20007;-92
2024/04/16 11:57:37;;;;;;;2.35;1.00;;;11.40;99.90;;;;;;5341638;26;20692;-91
2024/04/16 12:00:04;;;;;;;2.78;1.00;;;11.40;99.90;;;;;;5329027;26;20002;-93
2024/04/16 12:02:46;;;;;;;3.15;1.40;;;11.50;99.90;;;;;;5335833;26;20284;-91
2024/04/16 12:05:16;;;;;;;3.78;1.50;;;11.80;99.90;;;;;;5396189;26;20002;-91
2024/04/16 12:07:43;;;;;;;3.97;1.42;;;12.10;99.90;;;;;;5400366;26;20006;-91
2024/04/16 12:10:08;;;;;;;2.28;0.82;;;12.40;99.90;;;;;;5413012;26;20018;-92
2024/04/16 12:12:34;;;;;;;0.85;0.70;;;12.60;99.90;;;;;;5429527;26;20084;-91
2024/04/16 12:15:00;;;;;;;2.10;0.75;;;12.80;99.90;;;;;;5384093;26;20003;-92
2024/04/16 12:17:26;;;;;;;1.80;0.93;;;13.10;99.90;;;;;;5413108;26;20458;-91
2024/04/16 12:19:52;;;;;;;3.72;1.25;;;13.30;99.90;;;;;;5413123;26;20080;-92
2024/04/16 12:22:17;;;;;;;2.72;1.20;;;13.50;99.90;;;;;;5413328;26;20007;-92
2024/04/16 12:24:43;;;;;;;3.95;1.10;;;13.80;99.90;;;;;;5418287;26;20026;-92
2024/04/16 12:27:09;;;;;;;5.70;1.40;;;14.10;99.90;;;;;;5444398;26;20014;-90
2024/04/16 12:29:34;;;;;;;3.53;1.02;;;14.30;99.90;;;;;;5415628;26;20039;-91
2024/04/16 12:32:00;;;;;;;1.75;0.60;;;14.30;99.90;;;;;;5434387;26;20013;-91
2024/04/16 12:34:26;;;;;;;1.92;0.82;;;14.30;99.90;;;;;;5396616;26;20003;-90
2024/04/16 12:36:52;;;;;;;0.95;0.60;;;14.10;99.90;;;;;;5444348;26;20003;-91
2024/04/16 12:39:18;;;;;;;6.82;3.30;;;13.90;99.90;;;;;;5419163;26;20018;-91
2024/04/16 12:41:43;;;;;;;5.70;2.58;;;13.70;99.90;;;;;;5415475;26;20013;-91
2024/04/16 12:44:09;;;;;;;4.07;1.50;;;13.60;99.90;;;;;;5472238;26;20011;-91
2024/04/16 12:46:35;;;;;;;3.30;1.00;;;13.50;99.90;;;;;;5428395;26;20003;-91
2024/04/16 12:49:01;;;;;;;5.00;1.48;;;13.30;99.90;;;;;;5422451;26;20003;-90
2024/04/16 12:51:26;;;;;;;3.17;1.20;;;13.20;99.90;;;;;;5423745;26;20109;-91
2024/04/16 12:53:52;;;;;;;3.22;1.00;;;13.10;99.90;;;;;;5429513;26;20007;-91